createdAt,value
2022-12-23T00:01:31.276Z,16.27
2022-12-23T00:04:00.624Z,15.35
2022-12-23T00:06:29.092Z,11.77
2022-12-23T00:08:59.432Z,17.50
2022-12-23T00:11:28.930Z,12.57
2022-12-23T00:14:21.280Z,15.45
2022-12-23T00:16:52.397Z,16.13
2022-12-23T00:19:21.435Z,15.30
2022-12-23T00:21:49.896Z,17.48
2022-12-23T00:24:18.393Z,14.98
2022-12-23T00:26:47.006Z,19.60
2022-12-23T00:29:15.478Z,16.52
2022-12-23T00:31:43.988Z,17.52
2022-12-23T00:34:14.187Z,13.50
2022-12-23T00:36:43.243Z,11.73
2022-12-23T00:39:31.045Z,15.27
2022-12-23T00:42:17.357Z,15.27
2022-12-23T00:44:46.014Z,18.17
2022-12-23T00:47:37.124Z,13.57
2022-12-23T00:50:06.406Z,15.18
2022-12-23T00:52:34.829Z,15.93
2022-12-23T00:55:03.299Z,15.15
2022-12-23T00:57:31.750Z,16.48
2022-12-23T01:00:00.242Z,16.58
2022-12-23T01:02:46.364Z,14.05
2022-12-23T01:05:35.545Z,15.45
2022-12-23T01:08:04.069Z,16.55
2022-12-23T01:10:32.717Z,16.00
2022-12-23T01:13:01.181Z,14.35
2022-12-23T01:15:29.811Z,13.40
2022-12-23T01:17:58.285Z,13.43
2022-12-23T01:20:28.198Z,15.32
2022-12-23T01:22:56.599Z,12.43
2022-12-23T01:25:25.074Z,13.35
2022-12-23T01:27:53.479Z,12.55
2022-12-23T01:30:23.816Z,13.38
2022-12-23T01:32:52.261Z,12.18
2022-12-23T01:35:20.792Z,13.93
2022-12-23T01:37:50.667Z,17.50
2022-12-23T01:40:19.692Z,14.70
2022-12-23T01:42:47.638Z,13.98
2022-12-23T01:45:18.119Z,12.60
2022-12-23T01:47:49.040Z,13.52
2022-12-23T01:50:19.431Z,15.30
2022-12-23T01:52:50.022Z,13.70
2022-12-23T01:55:21.477Z,15.23
2022-12-23T01:57:50.317Z,11.68
2022-12-23T02:00:36.725Z,16.30
2022-12-23T02:03:22.925Z,13.57
2022-12-23T02:05:52.367Z,12.23
2022-12-23T02:08:39.070Z,16.08
2022-12-23T02:11:21.776Z,15.90
2022-12-23T02:14:07.311Z,12.40
2022-12-23T02:16:38.189Z,16.48
2022-12-23T02:19:12.354Z,17.35
2022-12-23T02:22:01.580Z,18.88
2022-12-23T02:24:45.305Z,18.83
2022-12-23T02:27:21.155Z,16.45
2022-12-23T02:30:13.898Z,17.05
2022-12-23T02:32:52.224Z,16.65
2022-12-23T02:35:27.539Z,18.75
2022-12-23T02:37:58.933Z,20.98
2022-12-23T02:40:34.101Z,17.45
2022-12-23T02:43:05.902Z,25.02
2022-12-23T02:45:38.234Z,18.13
2022-12-23T02:48:10.773Z,20.13
2022-12-23T02:50:40.509Z,17.58
2022-12-23T02:53:12.229Z,19.80
2022-12-23T02:55:42.324Z,24.40
2022-12-23T02:58:13.283Z,22.08
2022-12-23T03:00:42.877Z,19.50
2022-12-23T03:03:13.281Z,20.65
2022-12-23T03:05:44.897Z,18.30
2022-12-23T03:08:15.858Z,20.80
2022-12-23T03:10:52.291Z,21.58
2022-12-23T03:13:25.962Z,20.98
2022-12-23T03:15:59.408Z,21.10
2022-12-23T03:18:32.870Z,20.10
2022-12-23T03:21:05.463Z,18.85
2022-12-23T03:23:38.625Z,23.20
2022-12-23T03:26:11.697Z,18.05
2022-12-23T03:28:42.695Z,22.70
2022-12-23T03:31:13.014Z,18.02
2022-12-23T03:33:44.604Z,23.80
2022-12-23T03:36:15.147Z,19.42
2022-12-23T03:38:43.955Z,23.45
2022-12-23T03:41:15.568Z,21.00
2022-12-23T03:43:50.710Z,26.02
2022-12-23T03:46:21.459Z,18.65
2022-12-23T03:48:54.107Z,24.13
2022-12-23T03:51:26.128Z,23.90
2022-12-23T03:53:56.667Z,23.88
2022-12-23T03:56:28.328Z,24.35
2022-12-23T03:58:59.722Z,21.50
2022-12-23T04:01:34.094Z,24.02
2022-12-23T04:04:06.832Z,20.30
2022-12-23T04:06:38.497Z,24.67
2022-12-23T04:09:08.274Z,23.63
2022-12-23T04:11:39.295Z,21.27
2022-12-23T04:14:09.399Z,25.33
2022-12-23T04:16:38.146Z,25.10
2022-12-23T04:19:08.429Z,26.77
2022-12-23T04:21:37.087Z,22.02
2022-12-23T04:24:06.355Z,23.02
2022-12-23T04:26:35.005Z,25.75
2022-12-23T04:29:03.769Z,22.17
2022-12-23T04:31:32.418Z,24.33
2022-12-23T04:34:01.061Z,24.88
2022-12-23T04:36:31.369Z,20.10
2022-12-23T04:38:59.992Z,26.67
2022-12-23T04:41:28.697Z,23.63
2022-12-23T04:43:57.466Z,27.05
2022-12-23T04:46:26.265Z,23.70
2022-12-23T04:48:55.070Z,23.08
2022-12-23T04:51:23.807Z,30.30
2022-12-23T04:53:53.865Z,23.88
2022-12-23T04:56:23.063Z,23.95
2022-12-23T04:58:51.754Z,24.02
2022-12-23T05:01:20.610Z,20.83
2022-12-23T05:03:49.482Z,24.55
2022-12-23T05:06:18.296Z,25.48
2022-12-23T05:08:46.811Z,20.25
2022-12-23T05:11:16.826Z,19.40
2022-12-23T05:13:45.507Z,21.13
2022-12-23T05:16:14.232Z,22.85
2022-12-23T05:18:42.868Z,24.75
2022-12-23T05:21:11.854Z,22.55
2022-12-23T05:23:40.980Z,24.67
2022-12-23T05:26:09.766Z,22.90
2022-12-23T05:28:39.817Z,24.00
2022-12-23T05:31:09.538Z,20.70
2022-12-23T05:33:38.444Z,24.52
2022-12-23T05:36:07.717Z,21.08
2022-12-23T05:38:36.462Z,20.00
2022-12-23T05:41:05.263Z,22.27
2022-12-23T05:43:34.040Z,21.48
2022-12-23T05:46:04.432Z,25.85
2022-12-23T05:48:33.129Z,23.02
2022-12-23T05:51:02.217Z,19.58
2022-12-23T05:53:30.946Z,18.25
2022-12-23T05:55:59.691Z,22.23
2022-12-23T05:58:28.646Z,21.95
2022-12-23T06:00:57.362Z,20.17
2022-12-23T06:03:27.459Z,22.48
2022-12-23T06:05:56.343Z,20.35
2022-12-23T06:08:25.302Z,23.45
2022-12-23T06:10:54.188Z,28.42
2022-12-23T06:13:22.969Z,25.27
2022-12-23T06:15:51.746Z,25.48
2022-12-23T06:18:20.451Z,29.42
2022-12-23T06:20:50.926Z,22.52
2022-12-23T06:23:19.590Z,27.95
2022-12-23T06:25:48.199Z,33.60
2022-12-23T06:28:16.916Z,26.38
2022-12-23T06:30:45.651Z,31.08
2022-12-23T06:33:14.735Z,24.00
2022-12-23T06:35:43.377Z,28.27
2022-12-23T06:38:14.785Z,33.30
2022-12-23T06:40:43.450Z,31.67
2022-12-23T06:43:13.548Z,28.88
2022-12-23T06:45:42.660Z,29.98
2022-12-23T06:48:11.386Z,33.50
2022-12-23T06:50:40.211Z,27.98
2022-12-23T06:53:08.910Z,28.27
2022-12-23T06:55:39.191Z,27.92
2022-12-23T06:58:07.989Z,25.27
2022-12-23T07:00:36.718Z,28.33
2022-12-23T07:03:05.593Z,24.90
2022-12-23T07:05:37.718Z,28.35
2022-12-23T07:08:06.733Z,23.42
2022-12-23T07:10:35.865Z,23.55
2022-12-23T07:13:05.962Z,21.52
2022-12-23T07:15:34.693Z,26.48
2022-12-23T07:18:03.651Z,31.35
2022-12-23T07:20:32.462Z,26.55
2022-12-23T07:23:01.129Z,25.92
2022-12-23T07:25:30.388Z,25.80
2022-12-23T07:27:59.104Z,30.08
2022-12-23T07:30:29.339Z,25.27
2022-12-23T07:32:57.877Z,33.80
2022-12-23T07:35:26.660Z,28.80
2022-12-23T07:37:55.726Z,26.35
2022-12-23T07:40:24.533Z,27.08
2022-12-23T07:42:56.184Z,27.85
2022-12-23T07:45:25.038Z,24.83
2022-12-23T07:47:55.653Z,25.17
2022-12-23T07:50:24.507Z,27.25
2022-12-23T07:52:53.675Z,25.55
2022-12-23T07:55:22.568Z,24.42
2022-12-23T07:57:51.588Z,25.70
2022-12-23T08:00:20.803Z,22.55
2022-12-23T08:02:50.022Z,23.85
2022-12-23T08:05:20.769Z,23.83
2022-12-23T08:07:51.765Z,28.10
2022-12-23T08:10:20.585Z,24.48
2022-12-23T08:12:49.229Z,23.88
2022-12-23T08:15:17.952Z,20.10
2022-12-23T08:17:46.649Z,21.20
2022-12-23T08:20:15.282Z,22.30
2022-12-23T08:22:45.309Z,23.00
2022-12-23T08:25:13.983Z,20.55
2022-12-23T08:27:42.644Z,22.77
2022-12-23T08:30:11.999Z,23.30
2022-12-23T08:32:40.606Z,19.48
2022-12-23T08:35:09.597Z,23.95
2022-12-23T08:37:38.342Z,21.70
2022-12-23T08:40:09.247Z,21.10
2022-12-23T08:42:37.978Z,22.80
2022-12-23T08:45:07.094Z,24.42
2022-12-23T08:47:35.787Z,23.45
2022-12-23T08:50:04.560Z,23.27
2022-12-23T08:52:33.317Z,19.65
2022-12-23T08:55:02.492Z,23.58
2022-12-23T08:57:32.747Z,22.48
2022-12-23T09:00:02.214Z,25.58
2022-12-23T09:02:31.148Z,19.67
2022-12-23T09:05:00.034Z,25.08
2022-12-23T09:07:28.809Z,22.27
2022-12-23T09:09:57.489Z,26.48
2022-12-23T09:12:26.149Z,25.60
2022-12-23T09:14:56.279Z,26.55
2022-12-23T09:17:25.037Z,25.42
2022-12-23T09:19:53.830Z,25.13
2022-12-23T09:22:22.523Z,22.40
2022-12-23T09:24:51.451Z,28.70
2022-12-23T09:27:20.109Z,23.83
2022-12-23T09:29:48.965Z,23.20
2022-12-23T09:32:19.450Z,26.50
2022-12-23T09:34:48.177Z,28.20
2022-12-23T09:37:17.423Z,20.05
2022-12-23T09:39:46.145Z,19.65
2022-12-23T09:42:24.030Z,23.13
2022-12-23T09:45:03.029Z,23.92
2022-12-23T09:47:34.353Z,19.83
2022-12-23T09:50:04.942Z,26.90
2022-12-23T09:52:39.157Z,19.38
2022-12-23T09:55:08.970Z,21.38
2022-12-23T09:57:41.776Z,20.13
2022-12-23T10:00:13.464Z,20.23
2022-12-23T10:02:49.074Z,19.13
2022-12-23T10:05:22.342Z,20.00
2022-12-23T10:07:52.239Z,21.23
2022-12-23T10:10:26.535Z,17.73
2022-12-23T10:12:55.991Z,21.15
2022-12-23T10:15:27.004Z,18.75
2022-12-23T10:17:58.756Z,18.13
2022-12-23T10:20:31.955Z,20.73
2022-12-23T10:23:01.714Z,18.92
2022-12-23T10:25:33.228Z,20.92
2022-12-23T10:28:01.833Z,18.00
2022-12-23T10:31:05.385Z,18.23
2022-12-23T10:33:24.520Z,17.02
2022-12-23T10:35:58.437Z,22.70
2022-12-23T10:38:34.671Z,15.95
2022-12-23T10:41:09.488Z,20.13
2022-12-23T10:43:44.384Z,14.95
2022-12-23T10:46:17.883Z,15.27
2022-12-23T10:48:52.928Z,20.23
2022-12-23T10:51:23.203Z,18.92
2022-12-23T10:53:53.558Z,17.80
2022-12-23T10:56:23.301Z,17.60
2022-12-23T10:58:53.380Z,17.08
2022-12-23T11:01:26.977Z,18.92
2022-12-23T11:04:00.204Z,20.88
2022-12-23T11:06:35.004Z,22.98
2022-12-23T11:09:06.979Z,18.85
2022-12-23T11:11:55.071Z,20.85
2022-12-23T11:14:34.263Z,21.65
2022-12-23T11:17:03.344Z,22.60
2022-12-23T11:19:33.599Z,20.45
2022-12-23T11:22:03.139Z,19.33
2022-12-23T11:24:39.572Z,17.10
2022-12-23T11:27:14.422Z,15.38
2022-12-23T11:29:46.527Z,16.67
2022-12-23T11:32:18.538Z,16.70
2022-12-23T11:34:49.226Z,18.67
2022-12-23T11:37:29.527Z,18.20
2022-12-23T11:39:58.344Z,13.25
2022-12-23T11:42:30.321Z,15.63
2022-12-23T11:45:00.213Z,16.80
2022-12-23T11:47:31.106Z,15.80
2022-12-23T11:50:03.301Z,13.88
2022-12-23T11:52:33.501Z,12.57
2022-12-23T11:55:03.313Z,14.65
2022-12-23T11:57:35.628Z,17.88
2022-12-23T12:00:06.157Z,12.90
2022-12-23T12:02:37.562Z,10.93
2022-12-23T12:05:11.196Z,13.52
2022-12-23T12:07:43.976Z,11.35
2022-12-23T12:10:18.789Z,11.40
2022-12-23T12:12:52.871Z,11.93
2022-12-23T12:15:28.163Z,15.27
2022-12-23T12:17:58.024Z,34.30
2022-12-23T12:20:30.936Z,38.42
2022-12-23T12:23:01.738Z,32.72
2022-12-23T12:25:39.655Z,28.90
2022-12-23T12:28:13.408Z,22.30
2022-12-23T12:30:47.689Z,20.55
2022-12-23T12:33:19.383Z,17.25
2022-12-23T12:35:53.932Z,11.95
2022-12-23T12:38:26.092Z,12.57
2022-12-23T12:40:57.810Z,7.82
2022-12-23T12:43:30.007Z,7.85
2022-12-23T12:46:05.224Z,9.18
2022-12-23T12:48:41.541Z,5.47
2022-12-23T12:51:15.133Z,8.95
2022-12-23T12:53:48.297Z,9.48
2022-12-23T12:56:20.850Z,11.63
2022-12-23T12:58:49.682Z,17.17
2022-12-23T13:01:26.079Z,14.70
2022-12-23T13:04:06.796Z,15.57
2022-12-23T13:06:42.139Z,12.82
2022-12-23T13:09:15.190Z,9.27
2022-12-23T13:11:48.085Z,7.90
2022-12-23T13:14:23.852Z,9.95
2022-12-23T13:16:55.477Z,9.30
2022-12-23T13:19:27.195Z,9.25
2022-12-23T13:22:03.987Z,8.00
2022-12-23T13:24:35.305Z,8.80
2022-12-23T13:27:09.741Z,9.48
2022-12-23T13:29:57.800Z,9.75
2022-12-23T13:32:33.320Z,7.55
2022-12-23T13:35:05.913Z,10.07
2022-12-23T13:37:41.847Z,8.90
2022-12-23T13:40:18.833Z,7.90
2022-12-23T13:42:53.140Z,7.25
2022-12-23T13:45:22.643Z,8.18
2022-12-23T13:48:01.160Z,8.93
2022-12-23T13:50:35.255Z,5.68
2022-12-23T13:53:11.247Z,4.78
2022-12-23T13:55:54.962Z,9.07
2022-12-23T13:58:24.646Z,8.20
2022-12-23T14:00:59.455Z,6.57
2022-12-23T14:03:35.118Z,8.10
2022-12-23T14:06:22.627Z,5.78
2022-12-23T14:08:53.641Z,5.55
2022-12-23T14:11:24.163Z,8.15
2022-12-23T14:13:56.513Z,4.28
2022-12-23T14:16:30.991Z,4.72
2022-12-23T14:19:16.584Z,5.25
2022-12-23T14:21:50.052Z,5.45
2022-12-23T14:24:36.564Z,5.70
2022-12-23T14:27:19.957Z,4.97
2022-12-23T14:29:58.610Z,6.90
2022-12-23T14:32:38.007Z,5.28
2022-12-23T14:35:21.915Z,3.80
2022-12-23T14:38:08.805Z,4.68
2022-12-23T14:41:01.870Z,5.30
2022-12-23T14:43:52.883Z,3.67
2022-12-23T14:46:42.766Z,2.70
2022-12-23T14:49:38.479Z,3.72
2022-12-23T14:52:23.461Z,2.95
2022-12-23T14:55:28.067Z,3.95
2022-12-23T14:57:41.888Z,7.60
2022-12-23T15:00:13.087Z,12.93
2022-12-23T15:02:42.683Z,13.55
2022-12-23T15:05:12.321Z,17.27
2022-12-23T15:07:43.115Z,11.15
2022-12-23T15:10:18.141Z,7.25
2022-12-23T15:12:49.190Z,5.20
2022-12-23T15:15:21.513Z,4.35
2022-12-23T15:17:51.112Z,5.03
2022-12-23T15:20:21.882Z,3.47
2022-12-23T15:22:52.312Z,6.75
2022-12-23T15:25:23.135Z,5.63
2022-12-23T15:27:57.351Z,4.47
2022-12-23T15:30:34.200Z,4.90
2022-12-23T15:33:08.619Z,7.60
2022-12-23T15:35:46.109Z,6.53
2022-12-23T15:38:16.579Z,6.88
2022-12-23T15:40:46.161Z,7.63
2022-12-23T15:43:20.215Z,7.75
2022-12-23T15:45:50.760Z,10.10
2022-12-23T15:48:26.895Z,9.73
2022-12-23T15:50:57.476Z,11.05
2022-12-23T15:53:30.810Z,12.07
2022-12-23T15:56:00.217Z,14.68
2022-12-23T15:58:30.079Z,13.77
2022-12-23T16:01:02.314Z,16.55
2022-12-23T16:03:35.051Z,14.40
2022-12-23T16:06:12.119Z,12.63
2022-12-23T16:08:41.277Z,9.65
2022-12-23T16:11:15.756Z,11.00
2022-12-23T16:13:58.470Z,9.65
2022-12-23T16:16:42.640Z,10.60
2022-12-23T16:19:26.569Z,11.18
2022-12-23T16:21:55.663Z,11.48
2022-12-23T16:24:24.664Z,10.48
2022-12-23T16:26:53.758Z,9.38
2022-12-23T16:29:23.339Z,9.90
2022-12-23T16:32:01.801Z,9.07
2022-12-23T16:34:33.437Z,9.88
2022-12-23T16:37:02.881Z,9.07
2022-12-23T16:39:31.964Z,9.98
2022-12-23T16:42:01.156Z,11.38
2022-12-23T16:44:30.317Z,9.82
2022-12-23T16:47:04.148Z,7.88
2022-12-23T16:49:34.375Z,7.35
2022-12-23T16:52:03.573Z,6.25
2022-12-23T16:54:32.607Z,6.22
2022-12-23T16:57:01.644Z,6.03
2022-12-23T16:59:30.796Z,6.40
2022-12-23T17:02:03.700Z,5.47
2022-12-23T17:04:33.102Z,5.13
2022-12-23T17:07:01.920Z,7.97
2022-12-23T17:09:30.890Z,7.78
2022-12-23T17:11:59.652Z,7.25
2022-12-23T17:14:28.381Z,5.97
2022-12-23T17:17:00.078Z,6.20
2022-12-23T17:19:32.240Z,4.28
2022-12-23T17:22:02.485Z,4.35
2022-12-23T17:24:31.330Z,8.55
2022-12-23T17:27:00.431Z,6.90
2022-12-23T17:29:29.514Z,9.27
2022-12-23T17:31:58.744Z,8.20
2022-12-23T17:34:27.879Z,6.68
2022-12-23T17:37:01.010Z,9.05
2022-12-23T17:39:29.997Z,5.72
2022-12-23T17:41:59.071Z,7.75
2022-12-23T17:44:28.140Z,8.88
2022-12-23T17:46:57.253Z,5.80
2022-12-23T17:49:26.171Z,11.00
2022-12-23T17:51:55.127Z,7.00
2022-12-23T17:54:26.636Z,5.90
2022-12-23T17:56:55.414Z,8.13
2022-12-23T17:59:24.437Z,13.07
2022-12-23T18:01:53.658Z,8.98
2022-12-23T18:04:22.801Z,7.43
2022-12-23T18:06:51.814Z,13.18
2022-12-23T18:09:21.525Z,14.93
2022-12-23T18:11:52.066Z,13.48
2022-12-23T18:14:28.043Z,10.95
2022-12-23T18:16:57.212Z,17.08
2022-12-23T18:19:26.084Z,12.23
2022-12-23T18:21:55.319Z,14.73
2022-12-23T18:24:24.428Z,8.80
2022-12-23T18:26:54.982Z,13.93
2022-12-23T18:29:24.070Z,9.52
2022-12-23T18:31:53.281Z,8.82
2022-12-23T18:34:22.791Z,12.98
2022-12-23T18:36:52.625Z,22.90
2022-12-23T18:39:21.984Z,11.45
2022-12-23T18:41:51.022Z,10.98
2022-12-23T18:44:21.969Z,13.88
2022-12-23T18:46:50.944Z,10.43
2022-12-23T18:49:19.967Z,16.73
2022-12-23T18:51:48.719Z,14.05
2022-12-23T18:54:18.039Z,14.40
2022-12-23T18:56:47.176Z,9.05
2022-12-23T18:59:21.337Z,13.68
2022-12-23T19:01:57.813Z,17.48
2022-12-23T19:04:27.098Z,14.57
2022-12-23T19:06:56.846Z,14.68
2022-12-23T19:09:26.629Z,22.50
2022-12-23T19:11:55.787Z,18.13
2022-12-23T19:14:24.937Z,17.45
2022-12-23T19:16:53.742Z,18.80
2022-12-23T19:19:24.203Z,12.68
2022-12-23T19:21:53.512Z,17.80
2022-12-23T19:24:22.669Z,20.88
2022-12-23T19:26:52.018Z,19.15
2022-12-23T19:29:21.646Z,23.88
2022-12-23T19:31:50.540Z,16.33
2022-12-23T19:34:19.529Z,16.70
2022-12-23T19:36:49.979Z,15.00
2022-12-23T19:39:22.085Z,15.23
2022-12-23T19:41:50.938Z,18.35
2022-12-23T19:44:20.252Z,23.25
2022-12-23T19:46:50.853Z,22.08
2022-12-23T19:49:20.563Z,18.98
2022-12-23T19:51:50.988Z,25.90
2022-12-23T19:54:20.691Z,20.90
2022-12-23T19:56:51.554Z,17.85
2022-12-23T19:59:21.179Z,17.55
2022-12-23T20:01:50.178Z,19.10
2022-12-23T20:04:19.383Z,18.55
2022-12-23T20:06:48.388Z,19.25
2022-12-23T20:09:19.123Z,17.75
2022-12-23T20:11:49.137Z,19.52
2022-12-23T20:14:19.682Z,18.15
2022-12-23T20:16:49.103Z,17.48
2022-12-23T20:19:18.192Z,18.65
2022-12-23T20:21:47.263Z,17.02
2022-12-23T20:24:16.674Z,23.42
2022-12-23T20:26:47.788Z,22.15
2022-12-23T20:29:16.689Z,17.75
2022-12-23T20:31:45.899Z,18.10
2022-12-23T20:34:16.908Z,22.08
2022-12-23T20:36:46.418Z,15.25
2022-12-23T20:39:15.614Z,21.25
2022-12-23T20:41:54.244Z,16.92
2022-12-23T20:44:34.652Z,18.20
2022-12-23T20:47:05.895Z,16.95
2022-12-23T20:49:35.713Z,19.30
2022-12-23T20:52:04.787Z,19.30
2022-12-23T20:54:34.164Z,16.75
2022-12-23T20:57:04.869Z,16.98
2022-12-23T20:59:34.388Z,14.55
2022-12-23T21:02:03.307Z,17.40
2022-12-23T21:04:32.884Z,14.27
2022-12-23T21:07:02.144Z,13.90
2022-12-23T21:09:32.045Z,15.98
2022-12-23T21:12:00.880Z,20.83
2022-12-23T21:14:31.636Z,17.30
2022-12-23T21:17:00.417Z,24.30
2022-12-23T21:19:29.605Z,23.65
2022-12-23T21:21:59.786Z,20.13
2022-12-23T21:24:28.934Z,19.88
2022-12-23T21:26:57.846Z,19.20
2022-12-23T21:29:27.606Z,18.42
2022-12-23T21:31:59.426Z,20.95
2022-12-23T21:34:28.225Z,22.90
2022-12-23T21:36:57.494Z,21.60
2022-12-23T21:39:26.529Z,21.08
2022-12-23T21:41:55.521Z,19.27
2022-12-23T21:44:24.777Z,27.45
2022-12-23T21:46:54.080Z,13.10
2022-12-23T21:49:24.607Z,17.45
2022-12-23T21:51:53.529Z,20.67
2022-12-23T21:54:22.523Z,18.02
2022-12-23T21:56:51.195Z,12.07
2022-12-23T21:59:20.037Z,17.48
2022-12-23T22:01:50.399Z,17.30
2022-12-23T22:04:19.464Z,14.07
2022-12-23T22:06:50.180Z,18.13
2022-12-23T22:09:20.367Z,22.40
2022-12-23T22:11:49.938Z,18.42
2022-12-23T22:14:19.848Z,18.00
2022-12-23T22:16:48.949Z,15.02
2022-12-23T22:19:18.084Z,15.57
2022-12-23T22:21:46.899Z,17.92
2022-12-23T22:24:17.064Z,16.05
2022-12-23T22:26:45.646Z,22.98
2022-12-23T22:29:14.434Z,19.95
2022-12-23T22:31:45.415Z,19.77
2022-12-23T22:34:16.516Z,24.83
2022-12-23T22:36:45.543Z,17.70
2022-12-23T22:39:20.211Z,13.73
2022-12-23T22:41:52.260Z,17.02
2022-12-23T22:44:21.530Z,15.27
2022-12-23T22:46:50.582Z,17.17
2022-12-23T22:49:20.602Z,18.15
2022-12-23T22:51:49.392Z,19.27
2022-12-23T22:54:18.618Z,16.48
2022-12-23T22:56:47.510Z,17.83
2022-12-23T22:59:22.440Z,23.48
2022-12-23T23:01:52.151Z,18.20
2022-12-23T23:04:21.153Z,16.08
2022-12-23T23:06:49.983Z,10.70
2022-12-23T23:09:20.289Z,18.88
2022-12-23T23:11:49.567Z,13.27
2022-12-23T23:14:20.924Z,15.40
2022-12-23T23:16:51.583Z,15.27
2022-12-23T23:19:22.015Z,24.40
2022-12-23T23:21:54.612Z,14.57
2022-12-23T23:24:29.303Z,19.88
2022-12-23T23:27:00.850Z,17.20
2022-12-23T23:29:30.068Z,18.27
2022-12-23T23:32:00.720Z,20.73
2022-12-23T23:34:30.080Z,18.85
2022-12-23T23:36:59.382Z,19.67
2022-12-23T23:39:28.777Z,17.40
2022-12-23T23:41:57.858Z,16.50
2022-12-23T23:44:27.190Z,28.73
2022-12-23T23:46:56.384Z,24.40
2022-12-23T23:49:27.057Z,15.20
2022-12-23T23:51:56.421Z,14.38
2022-12-23T23:54:25.586Z,16.23
2022-12-23T23:56:54.825Z,21.65
2022-12-23T23:59:23.925Z,17.10
